Burewala Weather



Burewala's Current Weather

Temprature 38.44o broken clouds

broken clouds

Rain: 0 %

Min Temprature38.44o
Max Temprature38.44o
Humidity15
Wind Speed3.14 m/h
Sun Rise05:20:38
Sun Set18:51:10
Current Time: 08-May-2021 16:01:20
Lat/Lon: 30.1667, 72.65




Burewala's Geo Location



Burewala's Weather Forecast

Time Overall Temp Min Temp Max Temp Humidity Wind Speed Rain
08-May-2021 (Sat)
17:00:00 light rain 37.150 37.150 37.150 17 4.92 m/h 14 %
20:00:00 light rain 35.450 32.050 35.450 20 5.31 m/h 20 %
23:00:00 broken clouds 32.500 30.170 32.500 25 4.5 m/h 0 %
09-May-2021 (Sun)
02:00:00 broken clouds 29.690 29.690 29.690 27 2.29 m/h 0 %
05:00:00 broken clouds 28.040 28.040 28.040 29 2.34 m/h 0 %
08:00:00 broken clouds 33.980 33.980 33.980 21 4.98 m/h 0 %
11:00:00 broken clouds 40.130 40.130 40.130 13 4.91 m/h 0 %
14:00:00 broken clouds 42.080 42.080 42.080 10 4.52 m/h 0 %
17:00:00 broken clouds 41.190 41.190 41.190 10 3.84 m/h 0 %
20:00:00 scattered clouds 34.700 34.700 34.700 15 1.42 m/h 0 %
23:00:00 scattered clouds 31.080 31.080 31.080 27 6.47 m/h 0 %
10-May-2021 (Mon)
02:00:00 clear sky 28.640 28.640 28.640 33 3.56 m/h 0 %
05:00:00 few clouds 28.040 28.040 28.040 31 2.47 m/h 0 %
08:00:00 few clouds 34.720 34.720 34.720 19 1.96 m/h 0 %
11:00:00 few clouds 41.350 41.350 41.350 11 3.64 m/h 0 %
14:00:00 few clouds 43.830 43.830 43.830 8 4.51 m/h 0 %
17:00:00 scattered clouds 42.740 42.740 42.740 8 6.51 m/h 0 %
20:00:00 few clouds 33.080 33.080 33.080 22 4.88 m/h 0 %
23:00:00 scattered clouds 31.800 31.800 31.800 25 4.58 m/h 0 %
11-May-2021 (Tue)
02:00:00 overcast clouds 30.080 30.080 30.080 30 3.23 m/h 0 %
05:00:00 broken clouds 29.020 29.020 29.020 32 3.09 m/h 0 %
08:00:00 broken clouds 34.760 34.760 34.760 23 3.81 m/h 0 %
11:00:00 scattered clouds 41.200 41.200 41.200 15 4.01 m/h 0 %
14:00:00 clear sky 43.940 43.940 43.940 10 5.56 m/h 0 %
17:00:00 light rain 32.780 32.780 32.780 28 6.16 m/h 88 %
20:00:00 light rain 32.090 32.090 32.090 29 5.33 m/h 107 %
23:00:00 overcast clouds 30.840 30.840 30.840 35 6.36 m/h 0 %
12-May-2021 (Wed)
02:00:00 overcast clouds 30.250 30.250 30.250 37 5.65 m/h 0 %
05:00:00 overcast clouds 28.820 28.820 28.820 39 2.71 m/h 0 %
08:00:00 broken clouds 33.380 33.380 33.380 27 2.83 m/h 0 %
11:00:00 broken clouds 37.380 37.380 37.380 23 3.73 m/h 0 %
14:00:00 broken clouds 39.820 39.820 39.820 18 5.58 m/h 0 %
17:00:00 light rain 26.370 26.370 26.370 54 13.25 m/h 53 %
20:00:00 moderate rain 27.180 27.180 27.180 49 7.55 m/h 346 %
23:00:00 light rain 26.660 26.660 26.660 51 7.66 m/h 17 %
13-May-2021 (Thu)
02:00:00 light rain 25.860 25.860 25.860 57 1.55 m/h 46 %
05:00:00 moderate rain 24.550 24.550 24.550 62 2.59 m/h 305 %
08:00:00 light rain 27.910 27.910 27.910 46 4.39 m/h 42 %
11:00:00 few clouds 33.300 33.300 33.300 32 4.81 m/h 0 %
14:00:00 scattered clouds 36.050 36.050 36.050 26 3.37 m/h 0 %


Burewala's Tourist Spots

Historical Places in Burewala

Famous Cities (60)